McLean, IL (61754)

5:48 PM CST on February 06, 2016 (GMT -0600)
NE 6th Street | | Change Station
CLOSE
Current Station
Personal Weather Station
Location: Atlanta, IL
Elevation: 719 ft
Nearby Weather Stations

Elev 719 ft 40.27 °N, 89.23 °W | Updated 13 seconds ago

Clear
Clear
43.6 °F
Feels Like 44 °F
N
0.4
Wind Variable Wind from WSW
Gusts 4.0 mph

Today
High -- | Low -- °F
--% Chance of Precip.
Yesterday
High -- | Low -- °F
Precip. -- in
Pressure 30.17 in
Visibility 10.0 miles
Clouds Clear
Windchill 44 °F
Dew Point 33 °F
Humidity 66%
Rainfall 0.00 in
Snow Depth Not available.
7:01 AM 5:20 PM
Waning Crescent, 3% visible
METAR KAAA 062335Z AUTO 00000KT 10SM CLR 06/01 A3017 RMK AO2 T00610006
Pressure 30.17 in
Visibility 10.0 miles
Clouds Clear
Windchill 44 °F
Dew Point 33 °F
Humidity 66%
Rainfall 0.00 in
Snow Depth Not available.
7:01 AM 5:20 PM
Waning Crescent, 3% visible
METAR KAAA 062335Z AUTO 00000KT 10SM CLR 06/01 A3017 RMK AO2 T00610006

10-Day Weather Forecast

Almanac

Astronomy

Feb. 06, 2016 Rise Set
Actual Time
Civil Twilight
Nautical Twilight
Astronomical Twilight
Moon
Length of Visible Light
Length of Day
Tomorrow will be .
, % of the Moon is Illuminated

Today's Extremes

State Highs State Lows

Community

WunderPhotos

Upload Photos

1,891,098 photos uploaded!

WunderBlog® & News

Nearby

Air Quality

  Air Quality AQ Index Pollutant
Not available.

Snow Depth

Station Depth Elevation

Earthquake Activity

City Distance Mag. Time & Date
Minimum magnitude displayed is 2.5.

Coastal Water Temperatures

Place Temperature

Stations

Nearby Weather Stations

Station Location Temp. Windchill Dew Point Humidity Wind Precip. Elev Updated Type
                   

Watches & Warnings

There are currently no watches in effect.